createdAt,value
2022-10-06T00:02:29.752Z,101903.56
2022-10-06T00:05:00.245Z,101904.53
2022-10-06T00:07:31.027Z,101913.38
2022-10-06T00:10:01.466Z,101905.69
2022-10-06T00:12:31.580Z,101906.72
2022-10-06T00:15:01.710Z,101901.56
2022-10-06T00:17:31.837Z,101901.69
2022-10-06T00:20:01.898Z,101905.22
2022-10-06T00:22:40.412Z,101908.69
2022-10-06T00:25:13.033Z,101911.50
2022-10-06T00:27:46.476Z,101908.94
2022-10-06T00:30:24.101Z,101914.25
2022-10-06T00:33:06.462Z,101919.50
2022-10-06T00:35:37.562Z,101920.50
2022-10-06T00:38:08.353Z,101924.88
2022-10-06T00:40:46.677Z,101927.56
2022-10-06T00:43:53.557Z,101930.22
2022-10-06T00:46:36.564Z,101928.47
2022-10-06T00:49:19.951Z,101930.28
2022-10-06T00:51:56.364Z,101923.47
2022-10-06T00:54:28.189Z,101927.91
2022-10-06T00:56:59.379Z,101922.78
2022-10-06T00:59:29.758Z,101928.34
2022-10-06T01:02:11.205Z,101925.00
2022-10-06T01:04:47.863Z,101918.88
2022-10-06T01:07:22.300Z,101933.16
2022-10-06T01:09:53.286Z,101925.97
2022-10-06T01:12:24.008Z,101928.81
2022-10-06T01:14:56.579Z,101925.44
2022-10-06T01:17:36.247Z,101923.84
2022-10-06T01:20:11.171Z,101923.25
2022-10-06T01:22:55.399Z,101922.03
2022-10-06T01:25:26.111Z,101911.91
2022-10-06T01:27:59.017Z,101916.56
2022-10-06T01:30:56.056Z,101908.28
2022-10-06T01:33:27.519Z,101908.63
2022-10-06T01:35:58.620Z,101908.94
2022-10-06T01:38:29.800Z,101897.84
2022-10-06T01:41:05.692Z,101900.59
2022-10-06T01:43:37.993Z,101889.34
2022-10-06T01:46:09.048Z,101892.06
2022-10-06T01:48:40.987Z,101891.41
2022-10-06T01:51:18.855Z,101886.22
2022-10-06T01:53:49.525Z,101885.44
2022-10-06T01:56:20.231Z,101881.28
2022-10-06T01:58:51.325Z,101874.63
2022-10-06T02:01:21.765Z,101886.94
2022-10-06T02:03:52.170Z,101880.25
2022-10-06T02:06:22.604Z,101879.47
2022-10-06T02:08:52.913Z,101880.63
2022-10-06T02:11:23.292Z,101883.44
2022-10-06T02:13:53.513Z,101879.28
2022-10-06T02:16:23.438Z,101871.59
2022-10-06T02:18:53.653Z,101875.38
2022-10-06T02:21:25.314Z,101872.88
2022-10-06T02:23:55.809Z,101862.00
2022-10-06T02:26:27.164Z,101864.09
2022-10-06T02:28:57.473Z,101863.56
2022-10-06T02:31:28.821Z,101857.84
2022-10-06T02:34:00.321Z,101852.13
2022-10-06T02:36:31.883Z,101849.75
2022-10-06T02:39:02.720Z,101843.88
2022-10-06T02:41:34.079Z,101837.22
2022-10-06T02:44:05.319Z,101839.28
2022-10-06T02:46:35.541Z,101831.88
2022-10-06T02:49:08.383Z,101829.94
2022-10-06T02:51:39.123Z,101823.22
2022-10-06T02:54:09.751Z,101827.97
2022-10-06T02:56:39.806Z,101821.25
2022-10-06T02:59:09.938Z,101813.41
2022-10-06T03:01:43.609Z,101820.94
2022-10-06T03:04:18.374Z,101805.44
2022-10-06T03:06:50.617Z,101796.31
2022-10-06T03:09:24.370Z,101792.69
2022-10-06T03:11:55.977Z,101789.03
2022-10-06T03:14:52.115Z,101785.69
2022-10-06T03:17:23.850Z,101774.72
2022-10-06T03:19:59.737Z,101775.28
2022-10-06T03:22:30.190Z,101770.69
2022-10-06T03:25:00.679Z,101753.16
2022-10-06T03:27:30.888Z,101751.19
2022-10-06T03:30:05.635Z,101741.25
2022-10-06T03:32:37.590Z,101733.13
2022-10-06T03:35:08.758Z,101736.03
2022-10-06T03:37:39.052Z,101725.94
2022-10-06T03:40:09.767Z,101716.53
2022-10-06T03:42:40.345Z,101721.38
2022-10-06T03:45:11.609Z,101712.13
2022-10-06T03:47:42.231Z,101705.81
2022-10-06T03:50:12.935Z,101697.56
2022-10-06T03:52:43.965Z,101695.44
2022-10-06T03:55:14.621Z,101693.31
2022-10-06T03:57:44.722Z,101693.56
2022-10-06T04:00:18.806Z,101690.47
2022-10-06T04:02:49.041Z,101684.81
2022-10-06T04:05:19.303Z,101675.84
2022-10-06T04:07:49.472Z,101674.03
2022-10-06T04:10:20.754Z,101678.06
2022-10-06T04:12:51.116Z,101668.94
2022-10-06T04:15:21.329Z,101657.19
2022-10-06T04:17:51.553Z,101658.81
2022-10-06T04:20:21.733Z,101651.53
2022-10-06T04:22:53.173Z,101647.88
2022-10-06T04:25:24.460Z,101637.09
2022-10-06T04:27:57.911Z,101640.13
2022-10-06T04:30:29.183Z,101631.66
2022-10-06T04:32:59.326Z,101626.72
2022-10-06T04:35:29.481Z,101616.75
2022-10-06T04:37:59.653Z,101617.25
2022-10-06T04:40:29.820Z,101613.31
2022-10-06T04:43:00.029Z,101617.47
2022-10-06T04:45:30.275Z,101609.19
2022-10-06T04:48:01.379Z,101602.88
2022-10-06T04:50:31.975Z,101593.88
2022-10-06T04:53:15.215Z,101584.78
2022-10-06T04:55:45.321Z,101583.44
2022-10-06T04:58:15.144Z,101584.78
2022-10-06T05:00:45.435Z,101583.66
2022-10-06T05:03:15.608Z,101569.03
2022-10-06T05:05:47.048Z,101572.19
2022-10-06T05:08:17.507Z,101562.22
2022-10-06T05:10:48.171Z,101563.75
2022-10-06T05:13:18.812Z,101546.59
2022-10-06T05:15:58.665Z,101539.13
2022-10-06T05:18:33.638Z,101536.13
2022-10-06T05:21:06.992Z,101537.47
2022-10-06T05:23:40.277Z,101524.84
2022-10-06T05:26:12.416Z,101522.84
2022-10-06T05:28:44.258Z,101508.53
2022-10-06T05:31:23.600Z,101503.03
2022-10-06T05:33:54.457Z,101496.56
2022-10-06T05:36:27.957Z,101497.91
2022-10-06T05:39:00.620Z,101489.59
2022-10-06T05:41:39.110Z,101486.56
2022-10-06T05:44:12.589Z,101495.97
2022-10-06T05:46:44.497Z,101486.63
2022-10-06T05:49:15.956Z,101480.16
2022-10-06T05:52:12.700Z,101475.50
2022-10-06T05:54:44.334Z,101459.00
2022-10-06T05:57:15.423Z,101471.31
2022-10-06T05:59:47.279Z,101468.66
2022-10-06T06:02:18.934Z,101463.50
2022-10-06T06:04:49.076Z,101467.31
2022-10-06T06:07:19.342Z,101451.81
2022-10-06T06:09:50.007Z,101444.50
2022-10-06T06:12:20.376Z,101452.31
2022-10-06T06:15:11.948Z,101437.81
2022-10-06T06:17:50.691Z,101438.13
2022-10-06T06:20:23.607Z,101423.13
2022-10-06T06:22:56.833Z,101427.94
2022-10-06T06:25:29.966Z,101424.94
2022-10-06T06:28:00.205Z,101424.75
2022-10-06T06:30:31.073Z,101424.25
2022-10-06T06:33:01.829Z,101416.75
2022-10-06T06:35:33.091Z,101406.56
2022-10-06T06:38:03.409Z,101408.22
2022-10-06T06:40:33.689Z,101410.56
2022-10-06T06:43:03.995Z,101409.53
2022-10-06T06:45:42.396Z,101415.53
2022-10-06T06:48:41.139Z,101415.19
2022-10-06T06:51:14.748Z,101411.34
2022-10-06T06:53:45.597Z,101405.66
2022-10-06T06:56:16.339Z,101408.16
2022-10-06T06:58:51.519Z,101404.13
2022-10-06T07:01:24.786Z,101393.28
2022-10-06T07:04:00.566Z,101398.28
2022-10-06T07:06:35.381Z,101402.28
2022-10-06T07:09:06.455Z,101405.63
2022-10-06T07:11:39.827Z,101405.25
2022-10-06T07:14:19.819Z,101406.13
2022-10-06T07:17:09.499Z,101411.06
2022-10-06T07:19:53.016Z,101410.25
2022-10-06T07:22:45.152Z,101400.41
2022-10-06T07:25:28.805Z,101395.91
2022-10-06T07:28:09.054Z,101403.94
2022-10-06T07:30:41.818Z,101408.25
2022-10-06T07:33:16.773Z,101410.75
2022-10-06T07:35:48.707Z,101409.56
2022-10-06T07:38:25.859Z,101414.72
2022-10-06T07:43:58.818Z,101404.03
2022-10-06T07:46:32.222Z,101403.84
2022-10-06T07:49:07.832Z,101413.38
2022-10-06T07:51:38.923Z,101401.19
2022-10-06T07:54:10.315Z,101403.69
2022-10-06T07:57:18.954Z,101404.34
2022-10-06T07:59:49.277Z,101397.34
2022-10-06T08:02:21.356Z,101403.34
2022-10-06T08:04:51.827Z,101406.00
2022-10-06T08:07:23.953Z,101403.34
2022-10-06T08:09:54.209Z,101402.69
2022-10-06T08:15:32.627Z,101399.38
2022-10-06T08:18:16.654Z,101401.38
2022-10-06T08:20:51.468Z,101398.03
2022-10-06T08:23:22.538Z,101398.22
2022-10-06T08:25:58.181Z,101402.91
2022-10-06T08:28:28.225Z,101400.41
2022-10-06T08:30:58.463Z,101395.25
2022-10-06T08:33:28.729Z,101395.63
2022-10-06T08:36:05.557Z,101396.78
2022-10-06T08:38:36.626Z,101399.81
2022-10-06T08:41:29.091Z,101400.94
2022-10-06T08:44:20.895Z,101399.66
2022-10-06T08:47:12.985Z,101408.16
2022-10-06T08:49:47.177Z,101405.19
2022-10-06T08:52:42.453Z,101411.06
2022-10-06T08:55:35.299Z,101400.88
2022-10-06T08:58:24.408Z,101401.56
2022-10-06T09:00:58.127Z,101389.94
2022-10-06T09:03:31.556Z,101394.94
2022-10-06T09:06:35.691Z,101392.97
2022-10-06T09:09:47.200Z,101390.97
2022-10-06T09:12:23.317Z,101398.84
2022-10-06T09:15:11.399Z,101399.50
2022-10-06T09:17:51.157Z,101391.53
2022-10-06T09:20:43.941Z,101402.06
2022-10-06T09:23:18.857Z,101392.22
2022-10-06T09:25:49.222Z,101393.91
2022-10-06T09:28:20.118Z,101399.75
2022-10-06T09:30:54.526Z,101404.91
2022-10-06T09:33:26.820Z,101407.53
2022-10-06T09:36:13.608Z,101411.69
2022-10-06T09:38:55.528Z,101406.34
2022-10-06T09:41:30.840Z,101409.84
2022-10-06T09:44:07.558Z,101407.16
2022-10-06T09:46:44.738Z,101408.81
2022-10-06T09:49:21.515Z,101435.41
2022-10-06T09:52:17.024Z,101415.78
2022-10-06T09:54:47.571Z,101413.94
2022-10-06T09:57:27.178Z,101427.88
2022-10-06T10:00:01.144Z,101422.38
2022-10-06T10:02:38.433Z,101427.50
2022-10-06T10:05:23.495Z,101426.34
2022-10-06T10:08:11.372Z,101422.81
2022-10-06T10:10:42.470Z,101436.88
2022-10-06T10:13:27.942Z,101436.66
2022-10-06T10:16:02.617Z,101437.59
2022-10-06T10:18:35.034Z,101444.53
2022-10-06T10:21:11.856Z,101441.66
2022-10-06T10:23:56.583Z,101439.50
2022-10-06T10:26:46.321Z,101447.09
2022-10-06T10:29:33.147Z,101448.38
2022-10-06T10:32:32.893Z,101444.22
2022-10-06T10:35:06.455Z,101440.75
2022-10-06T10:37:45.561Z,101453.34
2022-10-06T10:40:33.559Z,101455.31
2022-10-06T10:43:15.565Z,101465.56
2022-10-06T10:45:59.778Z,101479.47
2022-10-06T10:49:03.460Z,101479.25
2022-10-06T10:51:38.626Z,101486.00
2022-10-06T10:54:40.283Z,101486.78
2022-10-06T10:57:17.663Z,101503.16
2022-10-06T10:59:56.919Z,101505.44
2022-10-06T11:02:28.399Z,101516.66
2022-10-06T11:05:32.201Z,101519.91
2022-10-06T11:08:24.294Z,101524.84
2022-10-06T11:11:02.500Z,101526.28
2022-10-06T11:14:01.573Z,101520.72
2022-10-06T11:17:01.309Z,101533.59
2022-10-06T11:19:49.428Z,101538.91
2022-10-06T11:22:36.584Z,101547.00
2022-10-06T11:25:14.806Z,101546.31
2022-10-06T11:27:56.503Z,101550.13
2022-10-06T11:30:27.933Z,101554.00
2022-10-06T11:33:21.045Z,101566.44
2022-10-06T11:35:51.796Z,101571.34
2022-10-06T11:38:39.661Z,101565.78
2022-10-06T11:41:14.619Z,101571.41
2022-10-06T11:44:09.001Z,101580.59
2022-10-06T11:46:50.687Z,101577.56
2022-10-06T11:49:33.913Z,101577.16
2022-10-06T11:52:09.888Z,101579.94
2022-10-06T11:54:46.149Z,101582.75
2022-10-06T11:57:30.564Z,101583.19
2022-10-06T12:00:07.343Z,101582.78
2022-10-06T12:02:36.800Z,101585.69
2022-10-06T12:08:03.460Z,101590.31
2022-10-06T12:10:36.227Z,101595.63
2022-10-06T12:17:05.958Z,101588.81
2022-10-06T12:19:34.549Z,101591.59
2022-10-06T12:22:19.062Z,101589.34
2022-10-06T12:25:08.661Z,101591.47
2022-10-06T12:27:51.044Z,101604.03
2022-10-06T12:30:59.278Z,101593.69
2022-10-06T12:33:41.866Z,101594.13
2022-10-06T12:36:20.894Z,101606.66
2022-10-06T12:39:08.207Z,101597.47
2022-10-06T12:42:09.691Z,101605.88
2022-10-06T12:44:41.953Z,101605.16
2022-10-06T12:47:39.347Z,101602.66
2022-10-06T12:50:23.331Z,101612.53
2022-10-06T12:53:07.287Z,101604.72
2022-10-06T12:56:01.879Z,101602.38
2022-10-06T12:58:34.643Z,101599.19
2022-10-06T13:01:11.718Z,101609.06
2022-10-06T13:03:42.022Z,101611.88
2022-10-06T13:06:12.521Z,101617.28
2022-10-06T13:08:44.060Z,101614.22
2022-10-06T13:11:24.571Z,101611.44
2022-10-06T13:14:02.449Z,101617.84
2022-10-06T13:16:37.782Z,101607.69
2022-10-06T13:19:16.194Z,101610.59
2022-10-06T13:21:47.266Z,101617.72
2022-10-06T13:24:23.151Z,101623.53
2022-10-06T13:26:53.358Z,101619.38
2022-10-06T13:29:28.550Z,101620.72
2022-10-06T13:31:58.761Z,101622.81
2022-10-06T13:34:39.722Z,101620.69
2022-10-06T13:37:15.759Z,101625.56
2022-10-06T13:39:46.065Z,101628.72
2022-10-06T13:42:24.604Z,101629.28
2022-10-06T13:45:05.344Z,101628.84
2022-10-06T13:47:35.835Z,101616.88
2022-10-06T13:50:19.425Z,101617.38
2022-10-06T13:52:52.008Z,101620.72
2022-10-06T13:55:27.340Z,101622.09
2022-10-06T13:58:06.842Z,101624.31
2022-10-06T14:01:02.060Z,101637.09
2022-10-06T14:03:40.067Z,101635.66
2022-10-06T14:06:21.965Z,101632.59
2022-10-06T14:08:56.075Z,101643.56
2022-10-06T14:11:30.170Z,101641.16
2022-10-06T14:14:07.281Z,101643.22
2022-10-06T14:16:37.674Z,101644.47
2022-10-06T14:19:08.174Z,101639.44
2022-10-06T14:21:46.167Z,101638.84
2022-10-06T14:24:21.164Z,101642.75
2022-10-06T14:26:53.774Z,101655.38
2022-10-06T14:29:26.478Z,101636.53
2022-10-06T14:31:56.210Z,101646.25
2022-10-06T14:34:26.540Z,101647.38
2022-10-06T14:36:56.728Z,101642.22
2022-10-06T14:39:27.170Z,101643.69
2022-10-06T14:41:57.483Z,101640.34
2022-10-06T14:44:28.128Z,101636.28
2022-10-06T14:46:59.401Z,101649.75
2022-10-06T14:49:29.953Z,101640.38
2022-10-06T14:52:00.379Z,101642.59
2022-10-06T14:54:30.962Z,101643.78
2022-10-06T14:57:01.309Z,101646.84
2022-10-06T14:59:31.566Z,101649.84
2022-10-06T15:02:02.066Z,101655.38
2022-10-06T15:04:32.875Z,101660.88
2022-10-06T15:07:20.876Z,101656.84
2022-10-06T15:09:51.282Z,101656.91
2022-10-06T15:12:22.468Z,101660.66
2022-10-06T15:14:51.978Z,101664.50
2022-10-06T15:17:23.195Z,101668.34
2022-10-06T15:19:53.509Z,101667.06
2022-10-06T15:22:24.686Z,101668.28
2022-10-06T15:24:54.770Z,101655.31
2022-10-06T15:28:03.087Z,101654.50
2022-10-06T15:30:33.441Z,101661.94
2022-10-06T15:33:06.671Z,101658.72
2022-10-06T15:35:37.784Z,101660.75
2022-10-06T15:38:08.068Z,101656.53
2022-10-06T15:40:38.586Z,101652.34
2022-10-06T15:43:08.780Z,101651.63
2022-10-06T15:45:38.680Z,101649.13
2022-10-06T15:48:11.317Z,101650.06
2022-10-06T15:50:42.084Z,101649.13
2022-10-06T15:53:12.082Z,101647.56
2022-10-06T15:55:42.233Z,101653.66
2022-10-06T15:58:12.328Z,101642.41
2022-10-06T16:00:42.598Z,101640.97
2022-10-06T16:03:26.985Z,101651.66
2022-10-06T16:06:01.759Z,101651.66
2022-10-06T16:08:34.835Z,101645.66
2022-10-06T16:11:05.759Z,101644.94
2022-10-06T16:13:36.684Z,101644.34
2022-10-06T16:16:07.055Z,101647.22
2022-10-06T16:18:37.396Z,101649.75
2022-10-06T16:21:07.642Z,101654.03
2022-10-06T16:23:37.698Z,101644.69
2022-10-06T16:26:08.673Z,101647.69
2022-10-06T16:28:39.301Z,101644.47
2022-10-06T16:31:09.600Z,101643.03
2022-10-06T16:33:40.548Z,101638.97
2022-10-06T16:36:12.582Z,101654.91
2022-10-06T16:38:43.965Z,101643.75
2022-10-06T16:41:14.912Z,101638.81
2022-10-06T16:43:48.170Z,101643.50
2022-10-06T16:46:24.672Z,101638.47
2022-10-06T16:48:57.216Z,101644.00
2022-10-06T16:51:33.291Z,101641.59
2022-10-06T16:54:06.008Z,101645.88
2022-10-06T16:56:39.212Z,101645.88
2022-10-06T16:59:20.645Z,101647.09
2022-10-06T17:01:51.029Z,101650.81
2022-10-06T17:04:24.569Z,101650.22
2022-10-06T17:06:58.915Z,101645.28
2022-10-06T17:09:30.994Z,101644.78
2022-10-06T17:12:05.094Z,101637.34
2022-10-06T17:14:36.320Z,101647.88
2022-10-06T17:17:07.025Z,101652.78
2022-10-06T17:19:37.625Z,101647.84
2022-10-06T17:22:07.693Z,101660.66
2022-10-06T17:24:37.769Z,101659.31
2022-10-06T17:27:07.973Z,101654.84
2022-10-06T17:29:39.262Z,101660.34
2022-10-06T17:32:10.048Z,101663.34
2022-10-06T17:34:42.478Z,101659.94
2022-10-06T17:37:13.057Z,101648.69
2022-10-06T17:39:47.031Z,101649.78
2022-10-06T17:42:18.180Z,101654.31
2022-10-06T17:44:47.742Z,101659.59
2022-10-06T17:47:18.652Z,101654.53
2022-10-06T17:49:49.012Z,101645.28
2022-10-06T17:52:24.097Z,101647.78
2022-10-06T17:54:55.738Z,101649.69
2022-10-06T17:57:26.065Z,101661.41
2022-10-06T17:59:59.098Z,101660.69
2022-10-06T18:02:29.342Z,101654.69
2022-10-06T18:04:59.424Z,101644.25
2022-10-06T18:07:29.819Z,101646.91
2022-10-06T18:10:17.726Z,101650.94
2022-10-06T18:12:47.747Z,101650.81
2022-10-06T18:15:17.824Z,101652.69
2022-10-06T18:17:51.936Z,101644.94
2022-10-06T18:20:22.791Z,101649.34
2022-10-06T18:22:54.374Z,101646.72
2022-10-06T18:25:27.042Z,101643.34
2022-10-06T18:27:57.742Z,101645.28
2022-10-06T18:30:29.507Z,101643.56
2022-10-06T18:36:09.124Z,101643.56
2022-10-06T18:36:16.619Z,101646.44
2022-10-06T18:38:48.276Z,101644.13
2022-10-06T18:41:20.868Z,101644.56
2022-10-06T18:43:51.935Z,101648.16
2022-10-06T18:46:40.057Z,101649.34
2022-10-06T18:49:18.388Z,101648.47
2022-10-06T18:51:54.683Z,101644.09
2022-10-06T18:54:31.460Z,101647.75
2022-10-06T18:57:02.243Z,101650.38
2022-10-06T18:59:32.615Z,101640.94
2022-10-06T19:02:03.674Z,101648.94
2022-10-06T19:04:40.590Z,101642.09
2022-10-06T19:07:11.076Z,101649.16
2022-10-06T19:09:46.221Z,101652.00
2022-10-06T19:12:17.017Z,101647.19
2022-10-06T19:14:48.806Z,101650.03
2022-10-06T19:17:19.054Z,101649.41
2022-10-06T19:19:56.492Z,101648.31
2022-10-06T19:22:26.436Z,101650.22
2022-10-06T19:24:56.303Z,101646.88
2022-10-06T19:27:26.813Z,101648.78
2022-10-06T19:29:57.877Z,101649.59
2022-10-06T19:32:34.532Z,101639.44
2022-10-06T19:35:09.256Z,101639.53
2022-10-06T19:37:41.282Z,101634.47
2022-10-06T19:40:12.470Z,101645.84
2022-10-06T19:42:52.373Z,101636.38
2022-10-06T19:45:22.646Z,101641.03
2022-10-06T19:47:53.379Z,101639.44
2022-10-06T19:50:23.810Z,101639.44
2022-10-06T19:52:53.890Z,101637.13
2022-10-06T19:55:25.105Z,101646.41
2022-10-06T19:57:56.038Z,101640.28
2022-10-06T20:00:26.291Z,101650.91
2022-10-06T20:02:56.480Z,101639.03
2022-10-06T20:05:26.727Z,101640.91
2022-10-06T20:07:56.633Z,101639.22
2022-10-06T20:10:26.524Z,101647.25
2022-10-06T20:12:56.806Z,101646.72
2022-10-06T20:15:26.804Z,101655.72
2022-10-06T20:17:57.173Z,101649.03
2022-10-06T20:20:27.534Z,101631.66
2022-10-06T20:22:57.693Z,101633.47
2022-10-06T20:25:27.940Z,101645.75
2022-10-06T20:27:58.643Z,101649.56
2022-10-06T20:30:29.767Z,101640.28
2022-10-06T20:33:01.692Z,101644.34
2022-10-06T20:35:31.969Z,101633.31
2022-10-06T20:38:02.656Z,101648.34
2022-10-06T20:40:43.916Z,101644.97
2022-10-06T20:43:15.394Z,101657.47
2022-10-06T20:45:46.819Z,101651.28
2022-10-06T20:48:16.939Z,101649.50
2022-10-06T20:50:47.313Z,101648.56
2022-10-06T20:53:18.077Z,101643.41
2022-10-06T20:55:55.386Z,101639.84
2022-10-06T20:58:26.505Z,101637.41
2022-10-06T21:00:56.945Z,101633.84
2022-10-06T21:03:27.873Z,101646.25
2022-10-06T21:05:57.876Z,101639.28
2022-10-06T21:08:27.951Z,101636.66
2022-10-06T21:11:03.019Z,101629.53
2022-10-06T21:13:33.927Z,101626.16
2022-10-06T21:16:06.049Z,101628.06
2022-10-06T21:18:36.733Z,101629.03
2022-10-06T21:21:11.110Z,101629.94
2022-10-06T21:23:43.838Z,101626.41
2022-10-06T21:26:17.680Z,101628.16
2022-10-06T21:28:47.373Z,101623.78
2022-10-06T21:31:20.402Z,101628.25
2022-10-06T21:33:51.668Z,101633.63
2022-10-06T21:36:24.101Z,101626.78
2022-10-06T21:38:59.040Z,101641.59
2022-10-06T21:41:32.984Z,101637.38
2022-10-06T21:44:05.797Z,101639.28
2022-10-06T21:46:52.713Z,101637.59
2022-10-06T21:49:25.088Z,101631.59
2022-10-06T21:51:59.617Z,101625.91
2022-10-06T21:54:29.901Z,101638.94
2022-10-06T21:57:00.475Z,101627.50
2022-10-06T21:59:30.892Z,101638.94
2022-10-06T22:02:01.364Z,101639.78
2022-10-06T22:04:31.968Z,101644.19
2022-10-06T22:07:03.621Z,101643.53
2022-10-06T22:09:34.281Z,101640.28
2022-10-06T22:12:04.553Z,101635.34
2022-10-06T22:14:34.721Z,101634.38
2022-10-06T22:17:06.271Z,101634.28
2022-10-06T22:19:36.797Z,101634.38
2022-10-06T22:22:06.888Z,101642.16
2022-10-06T22:24:37.901Z,101636.19
2022-10-06T22:27:08.296Z,101642.25
2022-10-06T22:29:38.501Z,101640.59
2022-10-06T22:32:09.602Z,101639.19
2022-10-06T22:34:39.985Z,101641.94
2022-10-06T22:37:10.787Z,101644.75
2022-10-06T22:39:41.008Z,101644.75
2022-10-06T22:42:11.616Z,101651.47
2022-10-06T22:44:41.972Z,101651.28
2022-10-06T22:47:12.710Z,101663.56
2022-10-06T22:49:42.756Z,101650.69
2022-10-06T22:52:12.742Z,101650.28
2022-10-06T22:54:42.931Z,101642.97
2022-10-06T22:57:13.255Z,101644.53
2022-10-06T22:59:43.573Z,101643.28
2022-10-06T23:02:13.608Z,101654.31
2022-10-06T23:04:43.659Z,101647.28
2022-10-06T23:07:13.682Z,101650.75
2022-10-06T23:09:43.730Z,101645.50
2022-10-06T23:12:13.731Z,101647.16
2022-10-06T23:14:43.886Z,101651.28
2022-10-06T23:17:14.267Z,101646.69
2022-10-06T23:19:44.349Z,101641.00
2022-10-06T23:22:14.835Z,101642.38
2022-10-06T23:24:44.862Z,101643.53
2022-10-06T23:27:15.702Z,101644.94
2022-10-06T23:29:46.349Z,101651.22
2022-10-06T23:32:16.801Z,101651.75
2022-10-06T23:34:47.250Z,101646.19
2022-10-06T23:37:17.815Z,101658.78
2022-10-06T23:39:47.890Z,101646.16
2022-10-06T23:42:17.908Z,101656.25
2022-10-06T23:44:48.501Z,101662.78
2022-10-06T23:47:18.555Z,101654.44
2022-10-06T23:49:48.679Z,101652.13
2022-10-06T23:52:18.849Z,101651.72
2022-10-06T23:54:49.117Z,101655.44
2022-10-06T23:57:19.788Z,101653.22
2022-10-06T23:59:49.984Z,101656.16
